Time;durP1;ratioP1;P1;durP2;ratioP2;P2;SDS_P1;SDS_P2;PMS_P1;PMS_P2;Temp;Humidity;BMP_temperature;BMP_pressure;BME280_temperature;BME280_humidity;BME280_pressure;Samples;Min_cycle;Max_cycle;Signal;HPM_P1;HPM_P2
2022/08/21 00:00:24;;;;;;;;;;;;;;;28.28;43.24;94434.47;4972222;28;8847;-84
2022/08/21 00:03:00;;;;;;;;;;;;;;;28.28;43.23;94430.94;4972207;28;9698;-85
2022/08/21 00:05:32;;;;;;;;;;;;;;;28.28;43.05;94439.25;4973626;28;9062;-83
2022/08/21 00:08:01;;;;;;;;;;;;;;;28.27;43.10;94429.47;4958357;28;9029;-84
2022/08/21 00:10:29;;;;;;;;;;;;;;;28.25;43.65;94432.00;4972152;28;8779;-85
2022/08/21 00:13:04;;;;;;;;;;;;;;;28.27;43.16;94426.69;4971820;28;6983;-84
2022/08/21 00:15:40;;;;;;;;;;;;;;;28.25;43.22;94418.91;4974150;28;8696;-84
2022/08/21 00:18:10;;;;;;;;;;;;;;;28.28;42.98;94428.94;4966604;28;9013;-83
2022/08/21 00:20:41;;;;;;;;;;;;;;;28.27;42.75;94432.97;4970682;28;9379;-84
2022/08/21 00:23:13;;;;;;;;;;;;;;;28.25;43.40;94424.44;4971191;28;8705;-85
2022/08/21 00:25:40;;;;;;;;;;;;;;;28.22;43.02;94422.00;4971067;28;9001;-84
2022/08/21 00:28:14;;;;;;;;;;;;;;;28.25;42.98;94424.44;4970888;28;9306;-84
2022/08/21 00:30:46;;;;;;;;;;;;;;;28.21;42.93;94412.94;4972500;28;9110;-84
2022/08/21 00:33:18;;;;;;;;;;;;;;;28.24;43.18;94428.50;4957412;28;7089;-84
2022/08/21 00:35:46;;;;;;;;;;;;;;;28.23;43.27;94418.69;4958964;28;8784;-84
2022/08/21 00:38:19;;;;;;;;;;;;;;;28.24;42.89;94411.16;4972935;28;8766;-84
2022/08/21 00:40:55;;;;;;;;;;;;;;;28.24;43.02;94413.91;4973458;28;8654;-84
2022/08/21 00:43:30;;;;;;;;;;;;;;;28.23;42.79;94412.44;4956235;28;8834;-84
2022/08/21 00:45:58;;;;;;;;;;;;;;;28.23;42.94;94412.44;4957567;28;8616;-84
2022/08/21 00:48:30;;;;;;;;;;;;;;;28.25;43.00;94418.91;4955899;28;7275;-84
2022/08/21 00:51:04;;;;;;;;;;;;;;;28.23;43.48;94418.69;4959543;28;8742;-83
2022/08/21 00:53:35;;;;;;;;;;;;;;;28.21;43.01;94412.19;4959851;28;7270;-84
2022/08/21 00:56:07;;;;;;;;;;;;;;;28.23;42.78;94412.44;4973960;28;8821;-85
2022/08/21 00:58:41;;;;;;;;;;;;;;;28.22;43.28;94408.91;4958152;28;8589;-84
2022/08/21 01:01:12;;;;;;;;;;;;;;;28.22;42.62;94402.63;4974431;28;9004;-84
2022/08/21 01:03:38;;;;;;;;;;;;;;;28.23;43.34;94410.41;4961874;28;9099;-84
2022/08/21 01:06:10;;;;;;;;;;;;;;;28.22;43.16;94408.91;4960348;28;9214;-84
2022/08/21 01:08:42;;;;;;;;;;;;;;;28.22;43.01;94411.69;4961377;28;9109;-85
2022/08/21 01:11:11;;;;;;;;;;;;;;;28.22;43.03;94408.91;4974804;28;7253;-84
2022/08/21 01:13:44;;;;;;;;;;;;;;;28.20;43.13;94405.19;4960347;28;9091;-84
2022/08/21 01:16:24;;;;;;;;;;;;;;;28.20;42.81;94405.19;4960329;28;9174;-84
2022/08/21 01:18:52;;;;;;;;;;;;;;;28.18;43.26;94394.66;4959671;28;7262;-87
2022/08/21 01:21:23;;;;;;;;;;;;;;;28.22;42.73;94397.09;4973638;28;7274;-84
2022/08/21 01:23:52;;;;;;;;;;;;;;;28.17;42.85;94392.41;4959613;28;8760;-84
2022/08/21 01:26:27;;;;;;;;;;;;;;;28.21;43.09;94401.13;4978464;28;7239;-84
2022/08/21 01:29:09;;;;;;;;;;;;;;;28.20;42.89;94394.13;4978286;28;7396;-84
2022/08/21 01:31:42;;;;;;;;;;;;;;;28.20;42.87;94391.34;4977762;28;9022;-84
2022/08/21 01:34:16;;;;;;;;;;;;;;;28.19;43.39;94389.84;4978565;28;7067;-84
2022/08/21 01:36:44;;;;;;;;;;;;;;;28.19;43.10;94390.59;4977278;28;7006;-84
2022/08/21 01:39:14;;;;;;;;;;;;;;;28.18;43.45;94396.66;4967449;28;7569;-84
2022/08/21 01:41:43;;;;;;;;;;;;;;;28.18;43.03;94382.84;4974976;28;9006;-84
2022/08/21 01:44:11;;;;;;;;;;;;;;;28.16;43.30;94383.38;4974568;28;8625;-84
2022/08/21 01:46:37;;;;;;;;;;;;;;;28.16;42.97;94385.41;4974875;28;9031;-84
2022/08/21 01:49:06;;;;;;;;;;;;;;;28.16;42.53;94382.63;4974423;28;9356;-84
2022/08/21 01:51:32;;;;;;;;;;;;;;;28.17;42.96;94378.56;4973869;28;6948;-84
2022/08/21 01:54:25;;;;;;;;;;;;;;;28.15;43.21;94367.28;4974896;28;7270;-83
2022/08/21 01:56:53;;;;;;;;;;;;;;;28.18;42.95;94371.78;4937795;28;8635;-84
2022/08/21 01:59:23;;;;;;;;;;;;;;;28.17;42.84;94373.03;4952198;28;7219;-84
2022/08/21 02:01:55;;;;;;;;;;;;;;;28.17;43.22;94367.50;4946383;28;8643;-84
2022/08/21 02:04:24;;;;;;;;;;;;;;;28.16;43.16;94360.50;4953352;28;8662;-85
2022/08/21 02:06:50;;;;;;;;;;;;;;;28.15;43.08;94353.47;4938189;28;8752;-84
2022/08/21 02:09:22;;;;;;;;;;;;;;;28.16;43.18;94354.97;4938611;28;8774;-84
2022/08/21 02:11:51;;;;;;;;;;;;;;;28.13;42.80;94354.00;4953907;28;8761;-84
2022/08/21 02:14:22;;;;;;;;;;;;;;;28.15;42.77;94356.22;4939715;28;7618;-86
2022/08/21 02:16:50;;;;;;;;;;;;;;;28.16;42.74;94354.97;4949737;28;6990;-84
2022/08/21 02:19:21;;;;;;;;;;;;;;;28.16;42.82;94349.44;4938039;28;9022;-84
2022/08/21 02:21:50;;;;;;;;;;;;;;;28.12;42.69;94343.47;4938542;28;6937;-84
2022/08/21 02:24:21;;;;;;;;;;;;;;;28.12;42.66;94346.25;4948051;28;9007;-84
2022/08/21 02:26:48;;;;;;;;;;;;;;;28.12;43.01;94340.72;4947765;28;8764;-84
2022/08/21 02:29:24;;;;;;;;;;;;;;;28.13;43.33;94340.19;4937120;28;9017;-85
2022/08/21 02:31:50;;;;;;;;;;;;;;;28.12;42.80;94337.94;4945210;28;8782;-84
2022/08/21 02:34:17;;;;;;;;;;;;;;;28.14;42.83;94338.16;4967655;28;7076;-85
2022/08/21 02:36:47;;;;;;;;;;;;;;;28.13;42.57;94336.66;4972056;28;8757;-84
2022/08/21 02:39:18;;;;;;;;;;;;;;;28.09;42.79;94331.44;4974348;28;6998;-84
2022/08/21 02:41:45;;;;;;;;;;;;;;;28.09;42.37;94328.69;4955970;28;9042;-84
2022/08/21 02:44:14;;;;;;;;;;;;;;;28.10;43.09;94338.47;4965429;28;7270;-84
2022/08/21 02:46:42;;;;;;;;;;;;;;;28.08;42.64;94334.72;4973272;28;9102;-84
2022/08/21 02:49:08;;;;;;;;;;;;;;;28.09;42.93;94336.22;4956978;28;9646;-84
2022/08/21 02:51:35;;;;;;;;;;;;;;;28.09;42.98;94336.97;4972954;28;6854;-84
2022/08/21 02:54:08;;;;;;;;;;;;;;;28.08;42.56;94345.78;4957386;28;9433;-84
2022/08/21 02:56:39;;;;;;;;;;;;;;;28.08;42.62;94343.78;4957818;28;7262;-84
2022/08/21 02:59:05;;;;;;;;;;;;;;;28.04;42.84;94343.34;4974461;28;9000;-84
2022/08/21 03:01:31;;;;;;;;;;;;;;;28.07;42.96;94341.53;4972936;28;8750;-85
2022/08/21 03:03:57;;;;;;;;;;;;;;;28.08;42.38;94331.97;4958785;28;9000;-84
2022/08/21 03:06:26;;;;;;;;;;;;;;;28.07;42.60;94336.78;4958891;28;8897;-84
2022/08/21 03:08:54;;;;;;;;;;;;;;;28.07;42.58;94341.53;4975700;28;9189;-84
2022/08/21 03:11:26;;;;;;;;;;;;;;;28.04;42.76;94334.28;4973043;28;8767;-84
2022/08/21 03:13:56;;;;;;;;;;;;;;;28.06;43.06;94328.97;4958834;28;7084;-84
2022/08/21 03:16:24;;;;;;;;;;;;;;;28.06;42.92;94331.75;4958102;28;9164;-84
2022/08/21 03:18:52;;;;;;;;;;;;;;;28.05;42.79;94322.72;4975683;28;8857;-85
2022/08/21 03:21:23;;;;;;;;;;;;;;;28.04;43.07;94326.75;4959329;28;7030;-84
2022/08/21 03:23:58;;;;;;;;;;;;;;;28.04;42.92;94331.53;4958775;28;9417;-84
2022/08/21 03:26:29;;;;;;;;;;;;;;;28.02;42.59;94334.84;4958062;28;8757;-84
2022/08/21 03:28:59;;;;;;;;;;;;;;;27.99;42.96;94329.63;4957632;28;9037;-84
2022/08/21 03:31:31;;;;;;;;;;;;;;;28.02;42.99;94329.31;4976208;28;9107;-84
2022/08/21 03:33:58;;;;;;;;;;;;;;;28.03;42.79;94332.81;4957352;28;9134;-86
2022/08/21 03:36:25;;;;;;;;;;;;;;;28.02;42.70;94339.63;4957294;28;7232;-84
2022/08/21 03:38:55;;;;;;;;;;;;;;;28.02;43.02;94336.84;4958078;28;7236;-85
2022/08/21 03:41:24;;;;;;;;;;;;;;;28.00;43.01;94331.09;4956009;28;8776;-84
2022/08/21 03:43:54;;;;;;;;;;;;;;;28.01;42.64;94338.88;4972323;28;8727;-84
2022/08/21 03:46:19;;;;;;;;;;;;;;;28.01;42.32;94338.13;4958091;28;8772;-84
2022/08/21 03:48:48;;;;;;;;;;;;;;;27.96;42.70;94331.41;4957999;28;9046;-84
2022/08/21 03:51:15;;;;;;;;;;;;;;;28.00;43.01;94336.63;4958218;28;9333;-84
2022/08/21 03:53:42;;;;;;;;;;;;;;;28.01;42.92;94341.66;4973935;28;7264;-85
2022/08/21 03:56:16;;;;;;;;;;;;;;;27.98;43.21;94330.88;4957342;28;8805;-84
2022/08/21 03:58:44;;;;;;;;;;;;;;;27.99;43.03;94341.41;4958000;28;8784;-84
2022/08/21 04:01:12;;;;;;;;;;;;;;;28.00;42.67;94347.69;4963520;28;7275;-84
2022/08/21 04:03:38;;;;;;;;;;;;;;;27.97;42.63;94335.66;4955361;28;7076;-84
2022/08/21 04:06:10;;;;;;;;;;;;;;;27.99;42.50;94343.44;4973469;28;7515;-85
2022/08/21 04:08:42;;;;;;;;;;;;;;;27.97;42.66;94345.97;4974631;28;9033;-84
2022/08/21 04:11:11;;;;;;;;;;;;;;;27.96;42.17;94345.22;4957497;28;8758;-85
2022/08/21 04:13:43;;;;;;;;;;;;;;;27.96;42.83;94347.97;4956600;28;9048;-84
2022/08/21 04:16:19;;;;;;;;;;;;;;;27.93;42.60;94346.25;4973398;28;8691;-85
2022/08/21 04:18:47;;;;;;;;;;;;;;;27.96;42.95;94344.47;4957438;28;8941;-84
2022/08/21 04:21:15;;;;;;;;;;;;;;;27.93;42.47;94342.75;4971910;28;9053;-87
2022/08/21 04:23:44;;;;;;;;;;;;;;;27.96;42.86;94347.22;4970335;28;7371;-86
2022/08/21 04:26:11;;;;;;;;;;;;;;;27.92;42.71;94341.28;4970100;28;8719;-86
2022/08/21 04:28:38;;;;;;;;;;;;;;;27.94;43.05;94347.75;4954139;28;9043;-86
2022/08/21 04:31:04;;;;;;;;;;;;;;;27.90;42.87;94346.56;4969785;28;9002;-87
2022/08/21 04:33:30;;;;;;;;;;;;;;;27.91;42.27;94351.56;4971467;28;8659;-85
2022/08/21 04:36:01;;;;;;;;;;;;;;;27.92;42.35;94360.63;4971932;28;7063;-87
2022/08/21 04:38:32;;;;;;;;;;;;;;;27.88;42.64;94349.88;4955319;28;7260;-85
2022/08/21 04:40:58;;;;;;;;;;;;;;;27.91;42.92;94359.88;4954724;28;9034;-86
2022/08/21 04:43:24;;;;;;;;;;;;;;;27.90;42.55;94366.69;4952122;28;8742;-85
2022/08/21 04:45:51;;;;;;;;;;;;;;;27.90;43.25;94358.38;4954018;28;8880;-86
2022/08/21 04:48:26;;;;;;;;;;;;;;;27.91;42.66;94361.88;4971015;28;6868;-86
2022/08/21 04:51:01;;;;;;;;;;;;;;;27.90;42.78;94361.16;4971924;28;8699;-86
2022/08/21 04:53:31;;;;;;;;;;;;;;;27.90;42.71;94363.91;4954345;28;7321;-86
2022/08/21 04:56:08;;;;;;;;;;;;;;;27.90;42.74;94361.16;4971012;28;9048;-86
2022/08/21 04:58:37;;;;;;;;;;;;;;;27.90;42.55;94357.63;4970877;28;9046;-86
2022/08/21 05:01:08;;;;;;;;;;;;;;;27.86;42.74;94354.44;4969857;28;8842;-85
2022/08/21 05:03:37;;;;;;;;;;;;;;;27.89;42.80;94364.44;4969404;28;7417;-86
2022/08/21 05:06:11;;;;;;;;;;;;;;;27.89;42.85;94358.91;4970199;28;8774;-86
2022/08/21 05:08:40;;;;;;;;;;;;;;;27.86;42.68;94357.19;4954680;28;7029;-86
2022/08/21 05:11:07;;;;;;;;;;;;;;;27.88;42.43;94360.19;4970564;28;7000;-86
2022/08/21 05:13:35;;;;;;;;;;;;;;;27.88;42.56;94360.19;4970242;28;8697;-87
2022/08/21 05:16:04;;;;;;;;;;;;;;;27.87;42.53;94355.91;4970254;28;9139;-87
2022/08/21 05:18:37;;;;;;;;;;;;;;;27.88;42.61;94360.19;4971060;28;8849;-85
2022/08/21 05:21:08;;;;;;;;;;;;;;;27.86;42.23;94365.50;4971101;28;9109;-85
2022/08/21 05:23:38;;;;;;;;;;;;;;;27.83;42.69;94361.00;4952058;28;8759;-85
2022/08/21 05:26:04;;;;;;;;;;;;;;;27.84;42.58;94357.72;4953955;28;8660;-86
2022/08/21 05:28:31;;;;;;;;;;;;;;;27.85;42.43;94370.28;4964861;28;8896;-86
2022/08/21 05:30:58;;;;;;;;;;;;;;;27.81;42.69;94364.31;4954191;28;9091;-85
2022/08/21 05:33:25;;;;;;;;;;;;;;;27.81;43.13;94366.31;4971632;28;7047;-85
2022/08/21 05:35:55;;;;;;;;;;;;;;;27.76;42.86;94361.63;4959464;28;7288;-86
2022/08/21 05:38:28;;;;;;;;;;;;;;;27.76;42.96;94361.63;4976165;28;7478;-84
2022/08/21 05:40:56;;;;;;;;;;;;;;;27.75;43.16;94355.38;4970862;28;8713;-84
2022/08/21 05:43:24;;;;;;;;;;;;;;;27.72;42.58;94361.19;4988165;28;9031;-85
2022/08/21 05:45:51;;;;;;;;;;;;;;;27.75;43.29;94362.91;4973951;28;8601;-85
2022/08/21 05:48:23;;;;;;;;;;;;;;;27.75;42.93;94357.38;4971685;28;7028;-85
2022/08/21 05:50:52;;;;;;;;;;;;;;;27.74;43.08;94361.41;4984710;28;9065;-84
2022/08/21 05:53:22;;;;;;;;;;;;;;;27.76;42.99;94356.09;4985506;28;7115;-85
2022/08/21 05:55:48;;;;;;;;;;;;;;;27.80;43.02;94356.53;4969552;28;7129;-85
2022/08/21 05:58:20;;;;;;;;;;;;;;;27.79;42.76;94346.75;4985156;28;9478;-86
2022/08/21 06:00:50;;;;;;;;;;;;;;;27.82;42.95;94348.47;4967536;28;10243;-86
2022/08/21 06:03:25;;;;;;;;;;;;;;;27.76;42.89;94351.31;4981724;28;9142;-84
2022/08/21 06:05:52;;;;;;;;;;;;;;;27.80;43.27;94357.28;4988698;28;9085;-84
2022/08/21 06:08:22;;;;;;;;;;;;;;;27.76;42.85;94356.84;4990314;28;7003;-84
2022/08/21 06:10:51;;;;;;;;;;;;;;;27.78;42.74;94359.81;4972711;28;8827;-84
2022/08/21 06:13:23;;;;;;;;;;;;;;;27.76;43.16;94351.31;4988861;28;8782;-84
2022/08/21 06:16:08;;;;;;;;;;;;;;;27.80;43.16;94351.00;4990014;28;9296;-84
2022/08/21 06:18:38;;;;;;;;;;;;;;;27.77;43.20;94346.53;4989939;28;7005;-84
2022/08/21 06:21:05;;;;;;;;;;;;;;;27.83;43.04;94349.94;4972236;28;8980;-84
2022/08/21 06:23:31;;;;;;;;;;;;;;;27.83;43.19;94359.00;4971985;28;8765;-84
2022/08/21 06:25:57;;;;;;;;;;;;;;;27.82;43.21;94354.00;4987578;28;9388;-84
2022/08/21 06:28:30;;;;;;;;;;;;;;;27.81;42.84;94346.97;4973391;28;7022;-84
2022/08/21 06:31:01;;;;;;;;;;;;;;;27.80;42.81;94348.97;4989757;28;8750;-84
2022/08/21 06:33:29;;;;;;;;;;;;;;;27.81;42.98;94349.72;4986870;28;9120;-84
2022/08/21 06:35:55;;;;;;;;;;;;;;;27.75;43.18;94351.84;4988047;28;8836;-84
2022/08/21 06:38:23;;;;;;;;;;;;;;;27.73;43.42;94348.88;4990411;28;9534;-84
2022/08/21 06:40:52;;;;;;;;;;;;;;;27.71;43.36;94352.13;4965764;28;9063;-85
2022/08/21 06:43:23;;;;;;;;;;;;;;;27.70;43.23;94352.66;4988197;28;8849;-84
2022/08/21 06:45:50;;;;;;;;;;;;;;;27.72;43.34;94355.66;4967318;28;6905;-85
2022/08/21 06:48:21;;;;;;;;;;;;;;;27.71;43.54;94354.91;4965927;28;8998;-84
2022/08/21 06:50:50;;;;;;;;;;;;;;;27.72;43.53;94359.16;4959212;28;7244;-83
2022/08/21 06:53:21;;;;;;;;;;;;;;;27.72;43.39;94358.41;4959657;28;9080;-84
2022/08/21 06:55:52;;;;;;;;;;;;;;;27.71;43.34;94356.94;4982446;28;8805;-83
2022/08/21 06:58:23;;;;;;;;;;;;;;;27.74;43.43;94348.31;4981194;28;8760;-84
2022/08/21 07:00:51;;;;;;;;;;;;;;;27.74;43.49;94347.56;4962177;28;7325;-83
2022/08/21 07:03:24;;;;;;;;;;;;;;;27.73;43.04;94357.88;4980585;28;8731;-83
2022/08/21 07:05:51;;;;;;;;;;;;;;;27.72;43.28;94350.13;4963077;28;8750;-84
2022/08/21 07:08:21;;;;;;;;;;;;;;;27.71;43.35;94362.47;4962169;28;8837;-83
2022/08/21 07:10:56;;;;;;;;;;;;;;;27.71;43.15;94354.19;4961417;28;8661;-84
2022/08/21 07:13:24;;;;;;;;;;;;;;;27.71;42.98;94357.66;4977350;28;8933;-84
2022/08/21 07:15:53;;;;;;;;;;;;;;;27.72;43.11;94355.66;4960132;28;8769;-85
2022/08/21 07:18:28;;;;;;;;;;;;;;;27.72;43.02;94361.94;4977420;28;8774;-83
2022/08/21 07:21:04;;;;;;;;;;;;;;;27.74;43.34;94361.41;4961956;28;8737;-84
2022/08/21 07:23:36;;;;;;;;;;;;;;;27.69;43.23;94356.72;4957129;28;8960;-85
2022/08/21 07:26:02;;;;;;;;;;;;;;;27.72;43.05;94359.16;4973587;28;9014;-83
2022/08/21 07:28:29;;;;;;;;;;;;;;;27.74;43.25;94356.63;4959176;28;6994;-83
2022/08/21 07:31:00;;;;;;;;;;;;;;;27.71;43.61;94356.94;4974889;28;7455;-84
2022/08/21 07:33:30;;;;;;;;;;;;;;;27.74;43.49;94358.63;4973643;28;9076;-84
2022/08/21 07:35:56;;;;;;;;;;;;;;;27.73;43.82;94355.13;4977704;28;9007;-85
2022/08/21 07:38:26;;;;;;;;;;;;;;;27.71;44.06;94354.19;4976995;28;9117;-83
2022/08/21 07:40:59;;;;;;;;;;;;;;;27.71;43.80;94348.66;4961469;28;8984;-83
2022/08/21 07:43:31;;;;;;;;;;;;;;;27.72;44.19;94350.88;4973409;28;9347;-83
2022/08/21 07:46:00;;;;;;;;;;;;;;;27.70;43.91;94347.91;4958173;28;9027;-84
2022/08/21 07:48:33;;;;;;;;;;;;;;;27.65;43.72;94345.94;4977057;28;6877;-83
2022/08/21 07:51:09;;;;;;;;;;;;;;;27.65;44.11;94351.47;4976761;28;9082;-84
2022/08/21 07:53:37;;;;;;;;;;;;;;;27.63;43.79;94352.00;4970175;28;7777;-84
2022/08/21 07:56:07;;;;;;;;;;;;;;;27.62;44.14;94350.50;4973435;28;8711;-85
2022/08/21 07:58:36;;;;;;;;;;;;;;;27.64;43.72;94355.53;4971935;28;9044;-84
2022/08/21 08:01:06;;;;;;;;;;;;;;;27.66;43.93;94352.22;4971344;28;7265;-85
2022/08/21 08:03:33;;;;;;;;;;;;;;;27.63;43.83;94340.22;4970410;28;7058;-86
2022/08/21 08:05:59;;;;;;;;;;;;;;;27.67;43.30;94350.94;4953048;28;9126;-87
2022/08/21 08:08:27;;;;;;;;;;;;;;;27.67;43.69;94356.47;4967828;28;7412;-86
2022/08/21 08:10:56;;;;;;;;;;;;;;;27.60;43.69;94344.75;4967362;28;9055;-87
2022/08/21 08:13:23;;;;;;;;;;;;;;;27.70;44.04;94355.44;4967045;28;7318;-87
2022/08/21 08:15:50;;;;;;;;;;;;;;;27.69;43.68;94345.66;4953346;28;7401;-87
2022/08/21 08:18:19;;;;;;;;;;;;;;;27.69;43.53;94354.69;4955160;28;8835;-86
2022/08/21 08:20:45;;;;;;;;;;;;;;;27.72;43.57;94344.59;4970413;28;7060;-86
2022/08/21 08:23:17;;;;;;;;;;;;;;;27.73;43.84;94340.56;4969968;28;8641;-88
2022/08/21 08:25:43;;;;;;;;;;;;;;;27.74;43.86;94342.06;4953324;28;8723;-86
2022/08/21 08:28:11;;;;;;;;;;;;;;;27.70;44.07;94336.84;4968382;28;7228;-87
2022/08/21 08:30:39;;;;;;;;;;;;;;;27.74;44.45;94344.81;4955192;28;9040;-86
2022/08/21 08:33:06;;;;;;;;;;;;;;;27.75;44.09;94346.31;4955723;28;8722;-86
2022/08/21 08:35:32;;;;;;;;;;;;;;;27.74;44.11;94339.28;4957830;28;7212;-86
2022/08/21 08:37:58;;;;;;;;;;;;;;;27.72;43.79;94339.81;4958083;28;7285;-86
2022/08/21 08:40:41;;;;;;;;;;;;;;;27.75;43.86;94347.06;4959067;28;7049;-87
2022/08/21 08:43:10;;;;;;;;;;;;;;;27.78;43.53;94345.25;4974019;28;9006;-86
2022/08/21 08:45:39;;;;;;;;;;;;;;;27.80;43.41;94345.47;4974318;28;8750;-86
2022/08/21 08:48:09;;;;;;;;;;;;;;;27.80;44.13;94351.00;4973592;28;7001;-87
2022/08/21 08:50:55;;;;;;;;;;;;;;;27.80;43.48;94356.53;4957294;28;8739;-86
2022/08/21 08:53:36;;;;;;;;;;;;;;;27.80;43.60;94353.75;4972086;28;8999;-86
2022/08/21 08:56:07;;;;;;;;;;;;;;;27.81;43.25;94347.72;4971620;28;7188;-87
2022/08/21 08:58:42;;;;;;;;;;;;;;;27.81;43.51;94344.22;4973730;28;7271;-85
2022/08/21 09:01:21;;;;;;;;;;;;;;;27.82;43.13;94340.91;4973020;28;8994;-86
2022/08/21 09:03:51;;;;;;;;;;;;;;;27.79;43.87;94344.75;4973305;28;6952;-85
2022/08/21 09:06:50;;;;;;;;;;;;;;;27.83;43.45;94333.38;4966852;28;9078;-85
2022/08/21 09:09:30;;;;;;;;;;;;;;;27.81;43.19;94335.91;4977381;28;8712;-86
2022/08/21 09:12:14;;;;;;;;;;;;;;;27.80;43.32;94340.69;4961202;28;9116;-86
2022/08/21 09:15:00;;;;;;;;;;;;;;;27.85;43.56;94336.34;4980324;28;9202;-86
2022/08/21 09:18:00;;;;;;;;;;;;;;;27.84;43.87;94326.59;4977813;28;8771;-86
2022/08/21 09:20:54;;;;;;;;;;;;;;;27.85;43.64;94334.34;4977368;28;9009;-86
2022/08/21 09:24:14;;;;;;;;;;;;;;;27.87;43.47;94333.81;4977880;28;8612;-86
2022/08/21 09:27:08;;;;;;;;;;;;;;;27.84;43.48;94327.31;4845685;29;10086;-86
2022/08/21 09:29:44;;;;;;;;;;;;;;;27.83;43.25;94322.31;4863925;29;8772;-86
2022/08/21 09:32:17;;;;;;;;;;;;;;;27.84;43.62;94318.28;4864692;29;8705;-88
2022/08/21 09:35:05;;;;;;;;;;;;;;;27.84;43.80;94310.00;4864600;29;9056;-88
2022/08/21 09:37:45;;;;;;;;;;;;;;;27.81;43.90;94317.31;4865446;29;8719;-87
2022/08/21 09:40:35;;;;;;;;;;;;;;;27.81;44.12;94314.56;4864790;29;7259;-87
2022/08/21 09:43:25;;;;;;;;;;;;;;;27.82;43.93;94309.78;4830625;29;7227;-88
2022/08/21 09:46:11;;;;;;;;;;;;;;;27.81;43.93;94319.34;4863273;29;7125;-87
2022/08/21 09:48:46;;;;;;;;;;;;;;;27.78;43.84;94310.06;4862478;29;8750;-87
2022/08/21 09:51:22;;;;;;;;;;;;;;;27.83;43.74;94308.50;4844686;29;7775;-87
2022/08/21 09:54:10;;;;;;;;;;;;;;;27.85;43.59;94314.25;4860050;29;8745;-88
2022/08/21 09:59:39;;;;;;;;;;;;;;;27.83;43.54;94295.44;4861681;29;7282;-88
2022/08/21 10:02:34;;;;;;;;;;;;;;;27.87;43.40;94301.38;4855139;29;9039;-87
2022/08/21 10:05:25;;;;;;;;;;;;;;;27.89;43.35;94292.56;4985462;28;7228;-88
2022/08/21 10:07:52;;;;;;;;;;;;;;;27.89;43.81;94293.31;4967166;28;7485;-87
2022/08/21 10:10:27;;;;;;;;;;;;;;;27.86;43.67;94288.09;4985513;28;9062;-88
2022/08/21 10:13:17;;;;;;;;;;;;;;;27.86;43.52;94288.81;4985940;28;8780;-88
2022/08/21 10:16:05;;;;;;;;;;;;;;;27.86;43.59;94290.88;4968409;28;9314;-87
2022/08/21 10:18:42;;;;;;;;;;;;;;;27.85;43.40;94287.34;4964096;28;9015;-87
2022/08/21 10:21:47;;;;;;;;;;;;;;;27.87;43.52;94292.34;4980832;28;8760;-88
2022/08/21 10:24:28;;;;;;;;;;;;;;;27.90;43.55;94294.06;4983201;28;7021;-88
2022/08/21 10:27:11;;;;;;;;;;;;;;;27.90;43.87;94285.75;4983547;28;8572;-88
2022/08/21 10:29:53;;;;;;;;;;;;;;;27.93;43.90;94287.44;4970266;28;7311;-88
2022/08/21 10:32:34;;;;;;;;;;;;;;;27.91;43.94;94287.25;4968333;28;8776;-88
2022/08/21 10:35:14;;;;;;;;;;;;;;;27.93;43.91;94281.94;4969863;28;7511;-88
2022/08/21 10:37:43;;;;;;;;;;;;;;;27.93;43.63;94282.69;4970388;28;9109;-88
2022/08/21 10:40:21;;;;;;;;;;;;;;;27.94;43.51;94284.19;4968406;28;9001;-88
2022/08/21 10:46:10;;;;;;;;;;;;;;;27.95;43.69;94280.13;4987799;28;9020;-88
2022/08/21 10:49:18;;;;;;;;;;;;;;;27.92;43.54;94283.97;4971383;28;6994;-88
2022/08/21 10:52:01;;;;;;;;;;;;;;;27.95;43.96;94284.94;4910572;29;7034;-87
2022/08/21 10:54:38;;;;;;;;;;;;;;;27.97;43.57;94276.84;4903433;29;8796;-86
2022/08/21 10:57:15;;;;;;;;;;;;;;;27.96;43.36;94278.88;4891722;29;9048;-87
2022/08/21 10:59:57;;;;;;;;;;;;;;;27.99;43.48;94277.09;4902231;29;9185;-87
2022/08/21 11:02:42;;;;;;;;;;;;;;;28.01;42.65;94264.25;4891284;29;7068;-87
2022/08/21 11:05:27;;;;;;;;;;;;;;;28.02;43.64;94262.19;4891755;29;9063;-88
2022/08/21 11:08:01;;;;;;;;;;;;;;;28.02;43.27;94262.94;4891995;29;8780;-86
2022/08/21 11:10:57;;;;;;;;;;;;;;;28.04;43.02;94252.09;4892295;29;8264;-86
2022/08/21 11:13:42;;;;;;;;;;;;;;;28.05;42.88;94250.09;4905544;29;7303;-86
2022/08/21 11:16:36;;;;;;;;;;;;;;;28.05;43.02;94239.78;4897568;29;9056;-86
2022/08/21 11:19:23;;;;;;;;;;;;;;;28.06;43.12;94240.50;4917838;29;9000;-87
2022/08/21 11:22:02;;;;;;;;;;;;;;;28.05;42.85;94239.03;4901930;29;7473;-87
2022/08/21 11:25:00;;;;;;;;;;;;;;;28.07;43.21;94236.47;4915513;29;7395;-87
2022/08/21 11:27:41;;;;;;;;;;;;;;;28.08;43.38;94227.63;4954973;28;8763;-87
2022/08/21 11:30:08;;;;;;;;;;;;;;;28.08;42.97;94227.63;4952715;28;7177;-87
2022/08/21 11:32:58;;;;;;;;;;;;;;;28.12;42.90;94227.34;4950850;28;8765;-87
2022/08/21 11:35:30;;;;;;;;;;;;;;;28.13;43.07;94223.28;4950202;28;8721;-87
2022/08/21 11:38:04;;;;;;;;;;;;;;;28.14;42.93;94219.97;4931843;28;7007;-87
2022/08/21 11:40:42;;;;;;;;;;;;;;;28.17;43.51;94223.69;4954781;28;6865;-87
2022/08/21 11:43:29;;;;;;;;;;;;;;;28.15;43.28;94215.94;4933116;28;7295;-87
2022/08/21 11:46:20;;;;;;;;;;;;;;;28.13;43.41;94212.97;4946689;28;6982;-87
2022/08/21 11:49:10;;;;;;;;;;;;;;;28.18;43.24;94208.63;4945516;28;8610;-87
2022/08/21 11:51:53;;;;;;;;;;;;;;;28.17;43.20;94209.88;4946336;28;7028;-86
2022/08/21 11:54:43;;;;;;;;;;;;;;;28.16;43.21;94209.16;4946352;28;9020;-87
2022/08/21 11:57:50;;;;;;;;;;;;;;;28.15;43.26;94204.13;4945563;28;7231;-86
2022/08/21 12:00:35;;;;;;;;;;;;;;;28.16;43.06;94213.94;4946560;28;7076;-87
2022/08/21 12:03:33;;;;;;;;;;;;;;;28.18;43.28;94205.84;4946295;28;8906;-87
2022/08/21 12:06:06;;;;;;;;;;;;;;;28.23;43.49;94205.00;4899991;29;9021;-86
2022/08/21 12:08:42;;;;;;;;;;;;;;;28.25;43.38;94207.97;4899003;29;8651;-86
2022/08/21 12:11:08;;;;;;;;;;;;;;;28.23;43.08;94199.47;4885630;29;9086;-87
2022/08/21 12:13:38;;;;;;;;;;;;;;;28.20;42.92;94195.00;4903704;29;9081;-87
2022/08/21 12:16:31;;;;;;;;;;;;;;;28.23;42.78;94197.44;4897967;29;8925;-87
2022/08/21 12:19:13;;;;;;;;;;;;;;;28.26;42.09;94192.84;4898022;29;8973;-87
2022/08/21 12:21:54;;;;;;;;;;;;;;;28.26;42.63;94195.63;4898306;29;8693;-87
2022/08/21 12:24:28;;;;;;;;;;;;;;;28.29;42.79;94191.81;4896750;29;7090;-87
2022/08/21 12:27:19;;;;;;;;;;;;;;;28.31;42.51;94194.78;4889770;29;9410;-87
2022/08/21 12:29:56;;;;;;;;;;;;;;;28.33;42.47;94186.69;4898457;29;7003;-86
2022/08/21 12:32:42;;;;;;;;;;;;;;;28.34;42.38;94183.38;4888096;29;9014;-86
2022/08/21 12:35:21;;;;;;;;;;;;;;;28.37;42.27;94189.88;4889556;29;8782;-86
2022/08/21 12:38:26;;;;;;;;;;;;;;;28.35;42.25;94186.91;4902543;29;7270;-87
2022/08/21 12:41:00;;;;;;;;;;;;;;;28.38;42.22;94171.25;4907898;29;9066;-86
2022/08/21 12:43:32;;;;;;;;;;;;;;;28.37;42.49;94187.09;4960503;28;7240;-86
2022/08/21 12:46:00;;;;;;;;;;;;;;;28.36;42.81;94177.34;4949906;28;8751;-87
2022/08/21 12:48:31;;;;;;;;;;;;;;;28.38;43.02;94180.31;4969110;28;9017;-87
2022/08/21 12:51:11;;;;;;;;;;;;;;;28.35;42.61;94179.34;4949527;28;9080;-87
2022/08/21 12:53:56;;;;;;;;;;;;;;;28.38;43.07;94183.06;4947806;28;8848;-87
2022/08/21 12:56:30;;;;;;;;;;;;;;;28.41;42.82;94184.00;4949639;28;8907;-87
2022/08/21 12:59:04;;;;;;;;;;;;;;;28.44;42.28;94180.94;4964469;28;7024;-87
2022/08/21 13:01:34;;;;;;;;;;;;;;;28.45;42.67;94176.88;4966073;28;9321;-87
2022/08/21 13:04:30;;;;;;;;;;;;;;;28.46;42.56;94183.91;4965456;28;9015;-86
2022/08/21 13:07:00;;;;;;;;;;;;;;;28.46;43.03;94177.63;4925156;29;8801;-87
2022/08/21 13:09:30;;;;;;;;;;;;;;;28.45;42.83;94171.34;4910599;29;6866;-87
2022/08/21 13:11:58;;;;;;;;;;;;;;;28.49;42.99;94177.31;4925689;29;9059;-87
2022/08/21 13:14:32;;;;;;;;;;;;;;;28.48;42.69;94183.34;4925018;29;8748;-87
2022/08/21 13:17:00;;;;;;;;;;;;;;;28.51;42.46;94188.59;4925576;29;6861;-87
2022/08/21 13:19:30;;;;;;;;;;;;;;;28.52;42.39;94181.75;4926619;29;7278;-87
2022/08/21 13:21:56;;;;;;;;;;;;;;;28.55;42.55;94177.19;4917841;29;7013;-87
2022/08/21 13:24:26;;;;;;;;;;;;;;;28.58;42.48;94179.63;4925617;29;8790;-87
2022/08/21 13:26:57;;;;;;;;;;;;;;;28.60;42.94;94173.59;4926470;29;9094;-87
2022/08/21 13:29:32;;;;;;;;;;;;;;;28.58;42.58;94173.38;4909301;29;8828;-87
2022/08/21 13:32:02;;;;;;;;;;;;;;;28.60;42.73;94177.06;4926077;29;8930;-84
2022/08/21 13:34:38;;;;;;;;;;;;;;;28.58;42.54;94171.34;4911035;29;9082;-84
2022/08/21 13:37:08;;;;;;;;;;;;;;;28.60;42.51;94176.34;4927974;29;9023;-84